createdAt,value
2022-09-27T00:02:13.705Z,14.89
2022-09-27T00:04:42.611Z,15.00
2022-09-27T00:07:12.230Z,14.66
2022-09-27T00:09:41.382Z,14.55
2022-09-27T00:12:12.569Z,14.88
2022-09-27T00:14:41.775Z,14.83
2022-09-27T00:17:12.103Z,15.03
2022-09-27T00:19:44.550Z,14.91
2022-09-27T00:22:13.786Z,14.55
2022-09-27T00:24:44.444Z,14.63
2022-09-27T00:27:15.225Z,14.73
2022-09-27T00:29:44.406Z,15.11
2022-09-27T00:32:13.601Z,15.16
2022-09-27T00:34:43.289Z,14.91
2022-09-27T00:37:14.951Z,14.89
2022-09-27T00:39:44.329Z,14.83
2022-09-27T00:42:15.028Z,14.71
2022-09-27T00:45:15.564Z,14.40
2022-09-27T00:47:55.853Z,14.74
2022-09-27T00:50:31.270Z,14.36
2022-09-27T00:53:11.522Z,14.35
2022-09-27T00:55:45.030Z,14.65
2022-09-27T00:58:24.038Z,14.75
2022-09-27T01:01:00.622Z,14.45
2022-09-27T01:03:40.783Z,14.34
2022-09-27T01:06:12.309Z,14.47
2022-09-27T01:08:42.296Z,14.29
2022-09-27T01:11:29.292Z,14.42
2022-09-27T01:14:21.077Z,14.54
2022-09-27T01:17:00.398Z,14.32
2022-09-27T01:20:16.236Z,14.48
2022-09-27T01:23:05.558Z,14.70
2022-09-27T01:26:16.144Z,14.45
2022-09-27T01:29:01.191Z,14.54
2022-09-27T01:31:40.853Z,14.59
2022-09-27T01:34:19.429Z,14.56
2022-09-27T01:37:01.748Z,14.55
2022-09-27T01:39:41.811Z,14.67
2022-09-27T01:42:22.649Z,14.74
2022-09-27T01:44:59.196Z,14.73
2022-09-27T01:47:39.452Z,14.63
2022-09-27T01:50:14.883Z,14.55
2022-09-27T01:52:50.775Z,14.61
2022-09-27T01:55:23.760Z,14.24
2022-09-27T01:57:59.297Z,14.29
2022-09-27T02:00:28.239Z,14.58
2022-09-27T02:03:08.157Z,14.57
2022-09-27T02:05:44.239Z,14.61
2022-09-27T02:08:21.428Z,14.50
2022-09-27T02:10:53.841Z,14.50
2022-09-27T02:13:27.766Z,14.53
2022-09-27T02:16:06.724Z,14.47
2022-09-27T02:18:49.429Z,14.51
2022-09-27T02:21:20.369Z,14.49
2022-09-27T02:23:55.820Z,14.49
2022-09-27T02:26:26.468Z,14.37
2022-09-27T02:29:08.118Z,14.37
2022-09-27T02:31:36.755Z,14.43
2022-09-27T02:34:12.444Z,14.45
2022-09-27T02:36:42.178Z,14.49
2022-09-27T02:39:11.987Z,14.20
2022-09-27T02:41:42.054Z,14.12
2022-09-27T02:44:13.529Z,14.11
2022-09-27T02:47:06.032Z,14.14
2022-09-27T02:50:01.254Z,14.19
2022-09-27T02:52:45.147Z,14.19
2022-09-27T02:55:24.831Z,13.88
2022-09-27T02:58:09.234Z,13.98
2022-09-27T03:00:49.659Z,14.11
2022-09-27T03:03:26.312Z,14.09
2022-09-27T03:06:04.344Z,14.11
2022-09-27T03:08:33.851Z,14.13
2022-09-27T03:11:03.608Z,14.08
2022-09-27T03:13:41.880Z,14.06
2022-09-27T03:16:22.805Z,14.08
2022-09-27T03:18:53.650Z,13.92
2022-09-27T03:21:24.243Z,13.91
2022-09-27T03:23:54.160Z,13.89
2022-09-27T03:26:27.468Z,13.89
2022-09-27T03:28:56.413Z,13.58
2022-09-27T03:31:27.442Z,13.88
2022-09-27T03:33:58.405Z,13.67
2022-09-27T03:36:33.877Z,13.37
2022-09-27T03:39:04.706Z,13.39
2022-09-27T03:41:34.026Z,13.53
2022-09-27T03:44:04.189Z,13.46
2022-09-27T03:46:33.183Z,13.47
2022-09-27T03:49:02.504Z,13.57
2022-09-27T03:51:32.758Z,13.59
2022-09-27T03:54:01.908Z,13.67
2022-09-27T03:56:30.754Z,13.36
2022-09-27T03:59:08.856Z,13.76
2022-09-27T04:01:39.412Z,13.57
2022-09-27T04:04:11.201Z,13.56
2022-09-27T04:06:42.059Z,13.53
2022-09-27T04:09:11.424Z,13.62
2022-09-27T04:11:40.987Z,13.66
2022-09-27T04:14:13.142Z,13.24
2022-09-27T04:16:44.052Z,13.28
2022-09-27T04:19:13.725Z,13.09
2022-09-27T04:21:43.979Z,12.95
2022-09-27T04:24:16.075Z,13.48
2022-09-27T04:26:47.054Z,13.06
2022-09-27T04:29:17.438Z,13.32
2022-09-27T04:31:46.540Z,13.46
2022-09-27T04:34:17.110Z,13.61
2022-09-27T04:36:46.302Z,13.49
2022-09-27T04:39:15.489Z,13.19
2022-09-27T04:41:47.155Z,13.35
2022-09-27T04:44:16.468Z,13.49
2022-09-27T04:46:46.578Z,13.37
2022-09-27T04:49:18.019Z,13.27
2022-09-27T04:51:48.804Z,13.17
2022-09-27T04:54:17.891Z,13.33
2022-09-27T04:56:50.656Z,13.31
2022-09-27T04:59:24.570Z,13.23
2022-09-27T05:01:53.673Z,13.39
2022-09-27T05:04:23.373Z,13.11
2022-09-27T05:06:57.206Z,13.42
2022-09-27T05:09:26.105Z,13.46
2022-09-27T05:11:55.033Z,13.39
2022-09-27T05:16:55.571Z,13.28
2022-09-27T05:19:24.807Z,13.40
2022-09-27T05:21:55.019Z,13.39
2022-09-27T05:24:25.099Z,13.49
2022-09-27T05:26:55.547Z,12.91
2022-09-27T05:29:25.894Z,13.39
2022-09-27T05:31:54.994Z,13.48
2022-09-27T05:34:24.081Z,13.52
2022-09-27T05:36:56.149Z,13.57
2022-09-27T05:39:27.485Z,13.13
2022-09-27T05:41:58.410Z,13.46
2022-09-27T05:44:27.663Z,13.33
2022-09-27T05:46:56.650Z,13.54
2022-09-27T05:49:27.754Z,13.29
2022-09-27T05:52:01.434Z,13.22
2022-09-27T05:54:32.937Z,13.29
2022-09-27T05:57:02.762Z,13.17
2022-09-27T05:59:33.266Z,13.12
2022-09-27T06:02:03.401Z,13.50
2022-09-27T06:04:33.365Z,13.53
2022-09-27T06:07:03.802Z,13.63
2022-09-27T06:09:35.437Z,13.47
2022-09-27T06:12:05.657Z,13.74
2022-09-27T06:14:35.430Z,14.27
2022-09-27T06:17:04.917Z,14.53
2022-09-27T06:19:35.655Z,14.23
2022-09-27T06:22:06.045Z,14.24
2022-09-27T06:24:35.331Z,14.11
2022-09-27T06:27:04.572Z,14.32
2022-09-27T06:29:36.391Z,14.45
2022-09-27T06:32:07.973Z,14.44
2022-09-27T06:34:38.380Z,14.31
2022-09-27T06:37:11.341Z,14.49
2022-09-27T06:39:40.957Z,14.53
2022-09-27T06:42:11.284Z,14.42
2022-09-27T06:44:40.305Z,15.00
2022-09-27T06:47:09.709Z,15.14
2022-09-27T06:49:41.042Z,15.06
2022-09-27T06:52:11.566Z,14.92
2022-09-27T06:54:41.204Z,15.01
2022-09-27T06:57:33.495Z,15.23
2022-09-27T07:00:22.665Z,14.77
2022-09-27T07:02:53.539Z,15.13
2022-09-27T07:05:22.692Z,15.15
2022-09-27T07:07:57.639Z,15.08
2022-09-27T07:10:40.553Z,15.14
2022-09-27T07:13:11.674Z,15.12
2022-09-27T07:15:43.606Z,15.04
2022-09-27T07:18:22.264Z,15.01
2022-09-27T07:23:38.499Z,15.30
2022-09-27T07:26:27.683Z,15.19
2022-09-27T07:28:58.522Z,14.99
2022-09-27T07:31:29.714Z,14.91
2022-09-27T07:33:58.200Z,14.81
2022-09-27T07:36:28.840Z,14.45
2022-09-27T07:39:01.509Z,14.31
2022-09-27T07:41:32.250Z,14.45
2022-09-27T07:44:01.856Z,14.46
2022-09-27T07:46:35.042Z,14.63
2022-09-27T07:49:03.583Z,14.70
2022-09-27T07:51:32.539Z,14.93
2022-09-27T07:54:08.652Z,14.29
2022-09-27T07:56:37.792Z,14.65
2022-09-27T07:59:10.595Z,14.78
2022-09-27T08:01:40.736Z,15.13
2022-09-27T08:04:10.257Z,15.40
2022-09-27T08:06:39.726Z,15.34
2022-09-27T08:09:10.935Z,15.42
2022-09-27T08:11:39.650Z,15.35
2022-09-27T08:14:08.183Z,15.50
2022-09-27T08:16:38.726Z,15.53
2022-09-27T08:19:07.392Z,15.75
2022-09-27T08:21:58.066Z,16.09
2022-09-27T08:24:29.934Z,16.22
2022-09-27T08:26:59.791Z,15.71
2022-09-27T08:29:29.063Z,16.05
2022-09-27T08:31:59.546Z,16.33
2022-09-27T08:34:32.473Z,16.34
2022-09-27T08:37:02.272Z,16.11
2022-09-27T08:39:33.449Z,15.78
2022-09-27T08:42:17.570Z,16.11
2022-09-27T08:45:02.929Z,15.87
2022-09-27T08:47:39.134Z,15.93
2022-09-27T08:50:25.003Z,15.90
2022-09-27T08:52:58.010Z,16.02
2022-09-27T08:55:37.469Z,16.08
2022-09-27T08:58:17.804Z,15.96
2022-09-27T09:00:46.944Z,15.78
2022-09-27T09:03:22.990Z,15.74
2022-09-27T09:06:10.262Z,15.27
2022-09-27T09:08:57.700Z,15.27
2022-09-27T09:12:02.425Z,14.97
2022-09-27T09:15:03.688Z,14.87
2022-09-27T09:17:53.760Z,14.79
2022-09-27T09:20:37.942Z,15.20
2022-09-27T09:23:39.646Z,15.31
2022-09-27T09:26:19.241Z,15.10
2022-09-27T09:29:11.739Z,15.17
2022-09-27T09:31:48.476Z,14.87
2022-09-27T09:34:23.465Z,14.80
2022-09-27T09:37:00.864Z,14.80
2022-09-27T09:39:36.267Z,14.50
2022-09-27T09:42:14.071Z,14.87
2022-09-27T09:44:54.442Z,15.00
2022-09-27T09:47:37.309Z,14.97
2022-09-27T09:50:17.865Z,15.25
2022-09-27T09:52:52.567Z,14.88
2022-09-27T09:55:26.139Z,15.19
2022-09-27T09:58:04.368Z,15.06
2022-09-27T10:00:35.399Z,15.32
2022-09-27T10:03:06.447Z,15.17
2022-09-27T10:05:35.840Z,15.04
2022-09-27T10:08:09.179Z,14.97
2022-09-27T10:10:37.785Z,15.29
2022-09-27T10:13:06.685Z,15.06
2022-09-27T10:15:38.483Z,15.24
2022-09-27T10:18:08.172Z,15.52
2022-09-27T10:20:43.726Z,15.40
2022-09-27T10:23:19.858Z,15.58
2022-09-27T10:25:54.272Z,15.24
2022-09-27T10:28:39.345Z,15.74
2022-09-27T10:31:14.391Z,15.51
2022-09-27T10:33:57.800Z,15.56
2022-09-27T10:36:29.682Z,15.75
2022-09-27T10:39:02.473Z,15.60
2022-09-27T10:41:36.671Z,15.80
2022-09-27T10:44:26.692Z,15.73
2022-09-27T10:47:00.037Z,15.60
2022-09-27T10:49:32.176Z,15.32
2022-09-27T10:52:04.342Z,15.39
2022-09-27T10:54:37.680Z,15.56
2022-09-27T10:57:17.874Z,15.48
2022-09-27T10:59:56.028Z,14.98
2022-09-27T11:02:33.330Z,15.47
2022-09-27T11:05:16.013Z,15.07
2022-09-27T11:07:53.914Z,15.16
2022-09-27T11:10:28.741Z,15.35
2022-09-27T11:13:17.008Z,15.67
2022-09-27T11:16:07.834Z,15.70
2022-09-27T11:18:48.922Z,15.80
2022-09-27T11:21:27.393Z,15.40
2022-09-27T11:24:13.523Z,14.95
2022-09-27T11:26:57.982Z,15.62
2022-09-27T11:29:37.432Z,15.47
2022-09-27T11:32:30.953Z,15.13
2022-09-27T11:35:32.847Z,15.07
2022-09-27T11:38:40.870Z,14.47
2022-09-27T11:41:40.298Z,14.79
2022-09-27T11:44:45.762Z,14.68
2022-09-27T11:47:29.949Z,14.58
2022-09-27T11:50:29.461Z,14.45
2022-09-27T11:53:16.245Z,14.41
2022-09-27T11:55:54.546Z,14.48
2022-09-27T11:58:33.196Z,14.08
2022-09-27T12:01:17.617Z,14.43
2022-09-27T12:04:23.743Z,14.58
2022-09-27T12:07:05.839Z,14.84
2022-09-27T12:09:40.201Z,14.55
2022-09-27T12:12:19.730Z,14.49
2022-09-27T12:14:55.724Z,14.79
2022-09-27T12:17:30.217Z,14.24
2022-09-27T12:20:05.488Z,14.44
2022-09-27T12:22:59.072Z,14.13
2022-09-27T12:25:35.582Z,14.58
2022-09-27T12:28:12.322Z,14.82
2022-09-27T12:30:49.062Z,14.82
2022-09-27T12:33:27.755Z,14.46
2022-09-27T12:36:00.557Z,14.58
2022-09-27T12:38:42.834Z,14.61
2022-09-27T12:41:18.999Z,14.20
2022-09-27T12:43:53.444Z,14.05
2022-09-27T12:46:37.396Z,13.78
2022-09-27T12:49:13.460Z,14.02
2022-09-27T12:51:49.484Z,14.46
2022-09-27T12:54:57.107Z,13.73
2022-09-27T12:57:41.288Z,13.95
2022-09-27T13:00:15.846Z,14.03
2022-09-27T13:03:25.100Z,13.86
2022-09-27T13:06:20.589Z,13.55
2022-09-27T13:09:14.974Z,14.16
2022-09-27T13:11:53.711Z,14.33
2022-09-27T13:14:27.769Z,14.00
2022-09-27T13:16:56.559Z,14.11
2022-09-27T13:19:46.110Z,14.11
2022-09-27T13:22:41.397Z,14.09
2022-09-27T13:25:55.600Z,14.52
2022-09-27T13:28:58.686Z,14.39
2022-09-27T13:32:12.692Z,14.19
2022-09-27T13:34:44.110Z,14.47
2022-09-27T13:37:47.337Z,14.62
2022-09-27T13:40:34.980Z,14.74
2022-09-27T13:43:54.384Z,14.71
2022-09-27T13:46:28.493Z,14.66
2022-09-27T13:49:02.156Z,14.73
2022-09-27T13:51:41.458Z,15.01
2022-09-27T13:54:40.277Z,14.93
2022-09-27T13:57:53.708Z,15.23
2022-09-27T14:00:29.739Z,15.52
2022-09-27T14:03:25.626Z,15.96
2022-09-27T14:06:02.729Z,16.10
2022-09-27T14:08:40.345Z,16.00
2022-09-27T14:11:15.954Z,16.43
2022-09-27T14:13:47.564Z,15.95
2022-09-27T14:16:21.090Z,15.99
2022-09-27T14:18:58.040Z,16.38
2022-09-27T14:21:34.603Z,16.58
2022-09-27T14:24:31.330Z,16.78
2022-09-27T14:27:13.815Z,16.58
2022-09-27T14:29:46.942Z,16.21
2022-09-27T14:32:20.053Z,16.11
2022-09-27T14:35:03.963Z,15.75
2022-09-27T14:37:33.484Z,15.89
2022-09-27T14:40:08.332Z,16.08
2022-09-27T14:42:38.969Z,15.87
2022-09-27T14:45:22.295Z,15.59
2022-09-27T14:47:53.704Z,15.64
2022-09-27T14:50:29.264Z,15.18
2022-09-27T14:53:00.899Z,14.61
2022-09-27T14:55:34.974Z,14.54
2022-09-27T14:58:08.673Z,15.04
2022-09-27T15:00:49.691Z,14.85
2022-09-27T15:03:33.405Z,15.06
2022-09-27T15:06:05.702Z,15.05
2022-09-27T15:08:35.697Z,14.93
2022-09-27T15:11:07.949Z,15.32
2022-09-27T15:13:38.496Z,14.84
2022-09-27T15:16:13.270Z,16.05
2022-09-27T15:18:46.779Z,16.18
2022-09-27T15:21:32.827Z,16.18
2022-09-27T15:24:03.901Z,15.63
2022-09-27T15:26:42.384Z,15.82
2022-09-27T15:29:20.927Z,15.36
2022-09-27T15:32:01.578Z,15.49
2022-09-27T15:34:35.262Z,15.17
2022-09-27T15:37:06.728Z,14.61
2022-09-27T15:39:38.395Z,15.16
2022-09-27T15:42:10.530Z,14.98
2022-09-27T15:44:47.433Z,14.47
2022-09-27T15:47:50.187Z,14.37
2022-09-27T15:50:39.982Z,14.32
2022-09-27T15:53:11.369Z,15.23
2022-09-27T15:55:43.697Z,14.77
2022-09-27T15:58:18.963Z,14.99
2022-09-27T16:00:55.823Z,14.84
2022-09-27T16:03:26.119Z,14.72
2022-09-27T16:05:58.630Z,14.83
2022-09-27T16:08:29.060Z,13.99
2022-09-27T16:11:03.522Z,14.19
2022-09-27T16:13:33.317Z,14.14
2022-09-27T16:16:11.803Z,14.05
2022-09-27T16:18:40.737Z,14.11
2022-09-27T16:21:11.149Z,13.77
2022-09-27T16:23:45.139Z,13.87
2022-09-27T16:26:13.886Z,14.08
2022-09-27T16:28:42.634Z,14.27
2022-09-27T16:31:17.185Z,13.92
2022-09-27T16:33:49.474Z,13.95
2022-09-27T16:36:21.425Z,13.74
2022-09-27T16:38:51.896Z,14.42
2022-09-27T16:41:22.737Z,13.66
2022-09-27T16:43:51.916Z,14.49
2022-09-27T16:46:20.711Z,14.03
2022-09-27T16:48:50.003Z,13.87
2022-09-27T16:51:40.694Z,14.31
2022-09-27T16:54:11.419Z,14.28
2022-09-27T16:56:42.385Z,14.38
2022-09-27T16:59:11.266Z,14.56
2022-09-27T17:01:39.767Z,14.77
2022-09-27T17:04:09.136Z,14.45
2022-09-27T17:06:39.649Z,14.80
2022-09-27T17:09:08.228Z,14.59
2022-09-27T17:11:37.535Z,14.38
2022-09-27T17:14:07.514Z,14.71
2022-09-27T17:16:36.108Z,14.66
2022-09-27T17:19:05.587Z,14.58
2022-09-27T17:21:38.066Z,14.65
2022-09-27T17:24:09.628Z,14.62
2022-09-27T17:26:38.310Z,14.56
2022-09-27T17:29:09.233Z,14.56
2022-09-27T17:31:41.250Z,14.54
2022-09-27T17:34:15.166Z,14.51
2022-09-27T17:36:48.485Z,14.30
2022-09-27T17:39:21.572Z,14.29
2022-09-27T17:41:52.625Z,14.31
2022-09-27T17:44:23.752Z,14.41
2022-09-27T17:47:13.240Z,14.52
2022-09-27T17:50:02.908Z,14.42
2022-09-27T17:52:38.982Z,14.42
2022-09-27T17:55:11.295Z,14.24
2022-09-27T17:57:46.435Z,14.25
2022-09-27T18:00:19.244Z,14.28
2022-09-27T18:02:51.720Z,14.29
2022-09-27T18:05:25.057Z,14.24
2022-09-27T18:07:56.613Z,14.14
2022-09-27T18:10:44.495Z,14.20
2022-09-27T18:13:29.838Z,14.14
2022-09-27T18:16:11.828Z,14.03
2022-09-27T18:18:51.001Z,13.93
2022-09-27T18:21:28.756Z,13.49
2022-09-27T18:24:09.086Z,13.56
2022-09-27T18:26:49.103Z,13.70
2022-09-27T18:29:22.099Z,13.72
2022-09-27T18:31:58.556Z,13.62
2022-09-27T18:34:35.186Z,13.16
2022-09-27T18:37:14.855Z,13.14
2022-09-27T18:39:47.644Z,13.16
2022-09-27T18:42:21.553Z,13.15
2022-09-27T18:44:56.310Z,13.49
2022-09-27T18:47:27.365Z,13.51
2022-09-27T18:50:03.566Z,13.22
2022-09-27T18:52:38.092Z,13.56
2022-09-27T18:55:16.758Z,13.44
2022-09-27T18:57:58.606Z,13.66
2022-09-27T19:00:31.838Z,13.62
2022-09-27T19:03:06.119Z,13.72
2022-09-27T19:05:41.700Z,13.74
2022-09-27T19:08:17.008Z,13.64
2022-09-27T19:10:46.538Z,13.62
2022-09-27T19:13:21.469Z,13.66
2022-09-27T19:16:06.338Z,13.82
2022-09-27T19:18:42.460Z,14.03
2022-09-27T19:21:29.897Z,13.93
2022-09-27T19:24:02.939Z,14.01
2022-09-27T19:26:33.991Z,14.15
2022-09-27T19:29:07.622Z,14.01
2022-09-27T19:31:42.383Z,13.85
2022-09-27T19:34:18.180Z,14.10
2022-09-27T19:36:57.023Z,13.93
2022-09-27T19:42:26.380Z,13.43
2022-09-27T19:44:57.963Z,13.54
2022-09-27T19:47:33.228Z,13.26
2022-09-27T19:50:07.681Z,13.30
2022-09-27T19:52:48.744Z,13.34
2022-09-27T19:55:25.631Z,13.63
2022-09-27T19:57:58.263Z,13.78
2022-09-27T20:00:31.163Z,13.57
2022-09-27T20:03:02.895Z,13.75
2022-09-27T20:05:51.023Z,13.69
2022-09-27T20:08:23.602Z,13.72
2022-09-27T20:11:05.200Z,13.77
2022-09-27T20:13:42.401Z,13.71
2022-09-27T20:16:16.502Z,13.66
2022-09-27T20:18:50.081Z,13.74
2022-09-27T20:21:21.405Z,13.33
2022-09-27T20:23:56.839Z,13.68
2022-09-27T20:26:28.013Z,13.57
2022-09-27T20:29:00.598Z,13.51
2022-09-27T20:31:33.199Z,13.57
2022-09-27T20:34:02.525Z,13.50
2022-09-27T20:36:36.682Z,13.50
2022-09-27T20:39:08.143Z,13.35
2022-09-27T20:41:39.642Z,13.24
2022-09-27T20:44:15.080Z,13.31
2022-09-27T20:46:45.790Z,13.27
2022-09-27T20:49:19.620Z,13.39
2022-09-27T20:51:51.227Z,13.39
2022-09-27T20:54:20.373Z,13.41
2022-09-27T20:56:50.244Z,13.37
2022-09-27T20:59:22.481Z,13.25
2022-09-27T21:01:56.295Z,13.26
2022-09-27T21:04:25.306Z,13.26
2022-09-27T21:06:56.656Z,13.32
2022-09-27T21:09:25.315Z,13.28
2022-09-27T21:11:53.976Z,13.22
2022-09-27T21:14:25.182Z,13.22
2022-09-27T21:16:53.564Z,13.24
2022-09-27T21:19:22.646Z,13.14
2022-09-27T21:21:53.942Z,13.10
2022-09-27T21:24:23.802Z,13.19
2022-09-27T21:26:53.715Z,13.21
2022-09-27T21:29:23.869Z,13.20
2022-09-27T21:31:53.055Z,13.17
2022-09-27T21:34:23.940Z,13.19
2022-09-27T21:36:52.659Z,13.10
2022-09-27T21:39:21.475Z,13.35
2022-09-27T21:41:51.030Z,13.39
2022-09-27T21:44:19.568Z,13.44
2022-09-27T21:46:52.606Z,13.46
2022-09-27T21:49:21.157Z,13.44
2022-09-27T21:51:49.963Z,13.48
2022-09-27T21:54:19.140Z,13.38
2022-09-27T21:56:48.463Z,13.45
2022-09-27T21:59:18.233Z,13.42
2022-09-27T22:01:49.474Z,13.39
2022-09-27T22:04:17.953Z,13.47
2022-09-27T22:06:47.015Z,13.47
2022-09-27T22:09:19.497Z,13.11
2022-09-27T22:11:48.660Z,13.41
2022-09-27T22:14:20.002Z,13.13
2022-09-27T22:16:50.698Z,13.30
2022-09-27T22:19:21.232Z,13.35
2022-09-27T22:21:49.460Z,13.18
2022-09-27T22:24:20.198Z,13.20
2022-09-27T22:26:54.414Z,13.26
2022-09-27T22:29:23.682Z,13.16
2022-09-27T22:31:54.401Z,12.86
2022-09-27T22:34:29.242Z,13.09
2022-09-27T22:37:01.367Z,13.06
2022-09-27T22:39:30.743Z,13.06
2022-09-27T22:41:59.879Z,12.95
2022-09-27T22:44:28.444Z,13.05
2022-09-27T22:47:00.108Z,13.22
2022-09-27T22:49:28.828Z,13.43
2022-09-27T22:51:57.327Z,13.35
2022-09-27T22:54:26.020Z,13.26
2022-09-27T22:56:57.266Z,13.35
2022-09-27T22:59:27.063Z,13.14
2022-09-27T23:01:57.611Z,13.17
2022-09-27T23:04:28.116Z,13.10
2022-09-27T23:06:57.504Z,13.11
2022-09-27T23:09:26.631Z,12.98
2022-09-27T23:11:55.899Z,12.97
2022-09-27T23:14:26.143Z,12.91
2022-09-27T23:16:54.886Z,12.70
2022-09-27T23:19:29.460Z,12.64
2022-09-27T23:22:00.024Z,12.54
2022-09-27T23:24:30.125Z,12.62
2022-09-27T23:27:16.555Z,12.73
2022-09-27T23:29:46.033Z,12.63
2022-09-27T23:32:14.972Z,12.62
2022-09-27T23:34:45.715Z,12.69
2022-09-27T23:37:14.408Z,12.72
2022-09-27T23:39:42.905Z,12.58
2022-09-27T23:42:11.496Z,12.42
2022-09-27T23:44:40.302Z,12.32
2022-09-27T23:47:10.925Z,12.35
2022-09-27T23:49:39.502Z,12.31
2022-09-27T23:52:12.623Z,12.31
2022-09-27T23:54:42.099Z,12.43
2022-09-27T23:57:10.958Z,12.19
2022-09-27T23:59:39.957Z,12.22
